createdAt,value
2022-08-11T00:01:54.102Z,16.94
2022-08-11T00:05:07.715Z,17.02
2022-08-11T00:08:15.181Z,17.00
2022-08-11T00:11:26.997Z,16.94
2022-08-11T00:14:38.083Z,16.89
2022-08-11T00:17:47.054Z,16.91
2022-08-11T00:20:55.085Z,16.95
2022-08-11T00:24:06.092Z,16.93
2022-08-11T00:27:14.254Z,17.06
2022-08-11T00:30:24.011Z,17.10
2022-08-11T00:33:41.103Z,17.01
2022-08-11T00:36:55.984Z,16.93
2022-08-11T00:40:03.444Z,16.89
2022-08-11T00:43:21.058Z,16.88
2022-08-11T00:46:41.112Z,16.90
2022-08-11T00:50:03.045Z,16.86
2022-08-11T00:53:34.219Z,16.77
2022-08-11T00:57:36.726Z,16.82
2022-08-11T01:01:11.670Z,16.79
2022-08-11T01:04:55.877Z,16.69
2022-08-11T01:08:53.295Z,16.60
2022-08-11T01:12:44.029Z,16.62
2022-08-11T01:16:18.595Z,16.54
2022-08-11T01:20:45.867Z,16.43
2022-08-11T01:24:07.793Z,16.42
2022-08-11T01:27:27.369Z,16.29
2022-08-11T01:31:27.307Z,16.25
2022-08-11T01:35:15.979Z,16.20
2022-08-11T01:38:55.888Z,16.15
2022-08-11T01:43:16.784Z,16.09
2022-08-11T01:46:29.979Z,16.00
2022-08-11T01:50:09.877Z,15.94
2022-08-11T01:53:30.308Z,15.87
2022-08-11T01:56:45.544Z,15.79
2022-08-11T02:00:09.293Z,15.73
2022-08-11T02:03:22.072Z,15.65
2022-08-11T02:06:58.599Z,15.61
2022-08-11T02:10:36.625Z,15.50
2022-08-11T02:13:50.923Z,15.46
2022-08-11T02:17:14.719Z,15.47
2022-08-11T02:20:41.095Z,15.47
2022-08-11T02:24:06.943Z,15.45
2022-08-11T02:27:23.456Z,15.43
2022-08-11T02:30:35.624Z,15.41
2022-08-11T02:33:43.890Z,15.36
2022-08-11T02:37:06.398Z,15.30
2022-08-11T02:40:22.525Z,15.24
2022-08-11T02:43:38.201Z,15.20
2022-08-11T02:47:00.195Z,15.20
2022-08-11T02:50:21.069Z,15.21
2022-08-11T02:53:35.579Z,15.17
2022-08-11T02:56:52.487Z,15.14
2022-08-11T03:00:08.205Z,15.10
2022-08-11T03:03:26.482Z,15.10
2022-08-11T03:06:48.559Z,15.11
2022-08-11T03:09:59.391Z,15.10
2022-08-11T03:13:33.692Z,15.11
2022-08-11T03:16:49.752Z,15.14
2022-08-11T03:20:07.915Z,15.16
2022-08-11T03:23:27.512Z,15.15
2022-08-11T03:26:46.382Z,15.09
2022-08-11T03:30:07.959Z,15.03
2022-08-11T03:33:40.871Z,15.04
2022-08-11T03:37:34.576Z,14.97
2022-08-11T03:42:01.855Z,14.90
2022-08-11T03:45:03.404Z,14.84
2022-08-11T03:48:22.839Z,14.86
2022-08-11T03:51:44.832Z,14.87
2022-08-11T03:55:07.786Z,14.86
2022-08-11T03:58:46.839Z,14.88
2022-08-11T04:02:12.606Z,14.83
2022-08-11T04:05:48.214Z,14.81
2022-08-11T04:09:27.093Z,14.78
2022-08-11T04:13:13.223Z,14.85
2022-08-11T04:16:41.841Z,14.91
2022-08-11T04:20:22.809Z,14.97
2022-08-11T04:24:34.929Z,15.06
2022-08-11T04:28:03.305Z,15.14
2022-08-11T04:31:51.779Z,15.18
2022-08-11T04:35:47.344Z,15.34
2022-08-11T04:39:23.415Z,15.59
2022-08-11T04:43:23.998Z,15.67
2022-08-11T04:47:03.085Z,15.74
2022-08-11T04:51:03.245Z,15.77
2022-08-11T04:54:45.599Z,15.85
2022-08-11T04:58:33.700Z,15.90
2022-08-11T05:01:58.790Z,15.95
2022-08-11T05:05:35.733Z,16.00
2022-08-11T05:09:13.532Z,16.04
2022-08-11T05:12:45.284Z,16.13
2022-08-11T05:16:12.083Z,16.19
2022-08-11T05:19:44.219Z,16.31
2022-08-11T05:23:09.713Z,16.41
2022-08-11T05:26:47.207Z,16.53
2022-08-11T05:30:21.959Z,16.69
2022-08-11T05:33:52.368Z,16.85
2022-08-11T05:37:25.794Z,17.02
2022-08-11T05:40:51.479Z,17.11
2022-08-11T05:44:21.829Z,17.20
2022-08-11T05:47:46.873Z,17.32
2022-08-11T05:51:11.766Z,17.50
2022-08-11T05:54:39.162Z,17.58
2022-08-11T05:57:51.415Z,17.68
2022-08-11T06:00:59.469Z,17.81
2022-08-11T06:04:19.909Z,17.95
2022-08-11T06:07:47.219Z,18.02
2022-08-11T06:11:03.118Z,18.12
2022-08-11T06:14:10.974Z,18.19
2022-08-11T06:17:25.322Z,18.28
2022-08-11T06:20:37.745Z,18.49
2022-08-11T06:23:46.548Z,18.47
2022-08-11T06:27:11.814Z,18.72
2022-08-11T06:30:19.670Z,18.89
2022-08-11T06:33:39.867Z,18.99
2022-08-11T06:36:59.110Z,19.00
2022-08-11T06:40:10.545Z,19.11
2022-08-11T06:43:23.711Z,19.24
2022-08-11T06:46:33.892Z,19.33
2022-08-11T06:50:03.319Z,19.32
2022-08-11T06:53:13.645Z,19.27
2022-08-11T06:56:43.954Z,19.23
2022-08-11T07:00:07.485Z,19.21
2022-08-11T07:03:19.342Z,19.28
2022-08-11T07:06:41.737Z,19.42
2022-08-11T07:10:51.403Z,19.52
2022-08-11T07:14:38.199Z,19.60
2022-08-11T07:18:10.237Z,19.77
2022-08-11T07:22:01.279Z,19.93
2022-08-11T07:25:22.166Z,20.06
2022-08-11T07:28:48.601Z,20.38
2022-08-11T07:32:03.664Z,20.63
2022-08-11T07:35:14.217Z,20.72
2022-08-11T07:38:43.416Z,20.81
2022-08-11T07:41:57.401Z,20.88
2022-08-11T07:45:25.175Z,21.08
2022-08-11T07:48:47.634Z,21.28
2022-08-11T07:52:12.112Z,21.33
2022-08-11T07:55:20.423Z,21.40
2022-08-11T07:59:07.463Z,21.39
2022-08-11T08:02:33.184Z,21.39
2022-08-11T08:05:56.820Z,21.41
2022-08-11T08:09:19.020Z,21.37
2022-08-11T08:12:44.140Z,21.41
2022-08-11T08:16:06.466Z,21.59
2022-08-11T08:19:19.320Z,21.67
2022-08-11T08:22:38.040Z,21.78
2022-08-11T08:25:48.721Z,21.90
2022-08-11T08:28:55.419Z,21.89
2022-08-11T08:32:03.510Z,21.90
2022-08-11T08:35:14.645Z,21.86
2022-08-11T08:38:22.806Z,21.97
2022-08-11T08:41:32.708Z,21.96
2022-08-11T08:44:44.908Z,21.96
2022-08-11T08:47:58.235Z,21.85
2022-08-11T08:52:02.594Z,21.71
2022-08-11T08:54:59.393Z,21.65
2022-08-11T08:58:06.668Z,21.70
2022-08-11T09:01:14.745Z,21.77
2022-08-11T09:04:23.025Z,21.86
2022-08-11T09:07:39.393Z,21.95
2022-08-11T09:11:13.750Z,22.01
2022-08-11T09:14:21.192Z,22.03
2022-08-11T09:17:30.135Z,22.06
2022-08-11T09:20:39.426Z,22.16
2022-08-11T09:24:08.425Z,22.21
2022-08-11T09:27:18.485Z,22.30
2022-08-11T09:30:27.633Z,22.31
2022-08-11T09:33:36.470Z,22.42
2022-08-11T09:37:03.026Z,22.54
2022-08-11T09:40:34.871Z,22.54
2022-08-11T09:44:04.260Z,22.60
2022-08-11T09:47:15.902Z,22.51
2022-08-11T09:50:23.149Z,22.48
2022-08-11T09:53:36.756Z,22.46
2022-08-11T09:57:06.774Z,22.54
2022-08-11T10:00:16.226Z,22.69
2022-08-11T10:03:38.249Z,23.00
2022-08-11T10:07:10.049Z,23.22
2022-08-11T10:10:17.265Z,23.43
2022-08-11T10:14:12.424Z,23.44
2022-08-11T10:16:59.325Z,23.36
2022-08-11T10:20:09.641Z,23.38
2022-08-11T10:24:00.417Z,23.40
2022-08-11T10:27:08.688Z,23.54
2022-08-11T10:30:37.172Z,23.52
2022-08-11T10:34:04.436Z,23.70
2022-08-11T10:37:14.968Z,23.78
2022-08-11T10:40:24.757Z,23.81
2022-08-11T10:44:01.258Z,23.81
2022-08-11T10:47:14.074Z,23.98
2022-08-11T10:50:36.486Z,24.02
2022-08-11T10:54:01.213Z,24.03
2022-08-11T10:57:24.420Z,23.85
2022-08-11T11:00:31.433Z,23.63
2022-08-11T11:03:41.935Z,23.62
2022-08-11T11:06:55.139Z,23.65
2022-08-11T11:10:06.877Z,23.60
2022-08-11T11:13:28.889Z,23.55
2022-08-11T11:16:52.319Z,23.44
2022-08-11T11:20:03.363Z,23.38
2022-08-11T11:23:16.929Z,23.50
2022-08-11T11:26:41.645Z,23.54
2022-08-11T11:30:00.152Z,23.47
2022-08-11T11:33:14.746Z,23.46
2022-08-11T11:36:32.422Z,23.58
2022-08-11T11:39:39.888Z,23.78
2022-08-11T11:42:48.957Z,24.02
2022-08-11T11:45:55.681Z,24.14
2022-08-11T11:49:15.312Z,24.08
2022-08-11T11:52:27.439Z,24.06
2022-08-11T11:55:35.362Z,23.99
2022-08-11T11:58:59.148Z,23.96
2022-08-11T12:02:11.897Z,24.03
2022-08-11T12:05:18.839Z,24.16
2022-08-11T12:08:30.055Z,24.35
2022-08-11T12:11:51.930Z,24.56
2022-08-11T12:14:59.307Z,24.42
2022-08-11T12:18:08.084Z,24.25
2022-08-11T12:21:18.640Z,24.16
2022-08-11T12:24:43.503Z,24.06
2022-08-11T12:27:50.763Z,23.98
2022-08-11T12:30:57.725Z,23.96
2022-08-11T12:34:06.528Z,23.87
2022-08-11T12:37:14.119Z,23.78
2022-08-11T12:41:11.858Z,23.81
2022-08-11T12:44:37.225Z,23.95
2022-08-11T12:48:07.643Z,24.10
2022-08-11T12:52:11.160Z,24.27
2022-08-11T12:55:35.525Z,24.35
2022-08-11T12:58:43.326Z,24.36
2022-08-11T13:02:06.236Z,24.40
2022-08-11T13:05:17.139Z,24.38
2022-08-11T13:08:26.375Z,24.35
2022-08-11T13:11:56.020Z,24.28
2022-08-11T13:15:08.147Z,24.24
2022-08-11T13:18:18.311Z,24.31
2022-08-11T13:21:26.329Z,24.27
2022-08-11T13:24:34.374Z,24.33
2022-08-11T13:27:41.650Z,24.51
2022-08-11T13:31:07.971Z,24.68
2022-08-11T13:34:15.556Z,24.71
2022-08-11T13:38:18.410Z,24.53
2022-08-11T13:40:55.956Z,24.37
2022-08-11T13:44:03.586Z,24.21
2022-08-11T14:04:28.915Z,24.14
2022-08-11T14:07:08.406Z,22.83
2022-08-11T14:10:16.211Z,22.04
2022-08-11T14:13:42.215Z,21.42
2022-08-11T14:16:55.653Z,21.07
2022-08-11T14:20:38.738Z,20.97
2022-08-11T14:23:36.128Z,20.70
2022-08-11T14:26:45.494Z,20.58
2022-08-11T14:29:51.500Z,20.40
2022-08-11T14:33:00.378Z,20.12
2022-08-11T14:36:27.066Z,19.90
2022-08-11T14:39:41.527Z,19.63
2022-08-11T14:43:03.859Z,19.51
2022-08-11T14:46:26.956Z,19.45
2022-08-11T14:49:35.147Z,19.47
2022-08-11T14:52:51.419Z,19.54
2022-08-11T14:56:13.819Z,19.60
2022-08-11T14:59:20.883Z,19.71
2022-08-11T15:02:43.044Z,19.76
2022-08-11T15:05:56.177Z,19.79
2022-08-11T15:09:09.264Z,19.86
2022-08-11T15:12:33.305Z,19.96
2022-08-11T15:15:55.921Z,20.02
2022-08-11T15:19:03.382Z,20.03
2022-08-11T15:22:28.083Z,20.12
2022-08-11T15:25:39.193Z,20.30
2022-08-11T15:29:09.562Z,20.51
2022-08-11T15:32:33.462Z,20.67
2022-08-11T15:35:56.891Z,20.86
2022-08-11T15:39:07.624Z,21.36
2022-08-11T15:42:36.453Z,22.02
2022-08-11T15:45:51.070Z,22.20
2022-08-11T15:49:03.084Z,22.28
2022-08-11T15:52:13.251Z,22.32
2022-08-11T15:55:20.828Z,22.44
2022-08-11T15:59:10.610Z,22.92
2022-08-11T16:02:36.159Z,23.04
2022-08-11T16:05:45.651Z,23.63
2022-08-11T16:08:56.646Z,24.59
2022-08-11T16:12:06.366Z,25.39
2022-08-11T16:15:31.212Z,26.00
2022-08-11T16:18:44.688Z,26.46
2022-08-11T16:21:54.713Z,26.65
2022-08-11T16:27:04.428Z,26.73
2022-08-11T16:28:32.723Z,27.04
2022-08-11T16:32:05.069Z,27.30
2022-08-11T16:35:29.901Z,27.44
2022-08-11T16:38:40.273Z,27.59
2022-08-11T16:42:03.462Z,27.78
2022-08-11T16:45:26.137Z,27.86
2022-08-11T16:48:38.758Z,28.09
2022-08-11T16:51:45.997Z,28.26
2022-08-11T16:54:53.024Z,28.27
2022-08-11T16:58:17.346Z,28.21
2022-08-11T17:01:26.009Z,27.45
2022-08-11T17:04:58.466Z,26.53
2022-08-11T17:08:22.809Z,25.73
2022-08-11T17:11:50.337Z,25.04
2022-08-11T17:15:00.621Z,24.41
2022-08-11T17:18:10.582Z,23.96
2022-08-11T17:21:23.189Z,23.56
2022-08-11T17:24:28.294Z,23.20
2022-08-11T17:27:36.559Z,22.87
2022-08-11T17:31:01.274Z,22.60
2022-08-11T17:34:25.210Z,22.35
2022-08-11T17:37:37.409Z,22.06
2022-08-11T17:41:09.045Z,21.76
2022-08-11T17:44:32.953Z,21.51
2022-08-11T17:47:55.320Z,21.30
2022-08-11T17:51:06.195Z,21.18
2022-08-11T17:54:31.127Z,21.04
2022-08-11T17:57:55.053Z,20.85
2022-08-11T18:01:08.690Z,20.76
2022-08-11T18:04:19.081Z,20.67
2022-08-11T18:07:42.717Z,20.51
2022-08-11T18:11:08.810Z,20.17
2022-08-11T18:14:33.266Z,19.89
2022-08-11T18:17:56.616Z,19.68
2022-08-11T18:21:18.497Z,19.49
2022-08-11T18:24:44.185Z,19.43
2022-08-11T18:28:13.266Z,19.23
2022-08-11T18:31:37.188Z,19.12
2022-08-11T18:35:00.715Z,19.01
2022-08-11T18:38:27.940Z,18.90
2022-08-11T18:41:57.555Z,18.78
2022-08-11T18:45:27.958Z,18.63
2022-08-11T18:48:55.285Z,18.61
2022-08-11T18:52:18.979Z,18.60
2022-08-11T18:55:42.449Z,18.59
2022-08-11T18:59:06.817Z,18.57
2022-08-11T19:02:33.554Z,18.58
2022-08-11T19:06:39.945Z,18.63
2022-08-11T19:09:58.980Z,18.66
2022-08-11T19:13:23.228Z,18.67
2022-08-11T19:16:46.148Z,18.69
2022-08-11T19:20:14.323Z,18.68
2022-08-11T19:23:39.849Z,18.65
2022-08-11T19:27:03.590Z,18.60
2022-08-11T19:30:26.085Z,18.55
2022-08-11T19:34:02.890Z,18.49
2022-08-11T19:37:35.701Z,18.41
2022-08-11T19:41:07.492Z,18.31
2022-08-11T19:44:31.145Z,18.26
2022-08-11T19:48:14.101Z,18.20
2022-08-11T19:51:39.184Z,18.12
2022-08-11T19:55:05.120Z,18.06
2022-08-11T19:58:27.197Z,18.01
2022-08-11T20:02:01.394Z,17.95
2022-08-11T20:05:32.103Z,17.88
2022-08-11T20:08:58.811Z,17.84
2022-08-11T20:12:24.715Z,17.77
2022-08-11T20:15:47.976Z,17.73
2022-08-11T20:19:11.588Z,17.74
2022-08-11T20:22:35.876Z,17.73
2022-08-11T20:26:13.998Z,17.72
2022-08-11T20:29:44.494Z,17.68
2022-08-11T20:33:08.813Z,17.64
2022-08-11T20:36:34.479Z,17.63
2022-08-11T20:39:58.096Z,17.55
2022-08-11T20:44:05.677Z,17.55
2022-08-11T20:47:13.160Z,17.49
2022-08-11T20:50:37.234Z,17.43
2022-08-11T20:54:05.698Z,17.40
2022-08-11T20:57:54.401Z,17.37
2022-08-11T21:01:20.559Z,17.32
2022-08-11T21:05:00.206Z,17.29
2022-08-11T21:08:25.952Z,17.26
2022-08-11T21:11:49.857Z,17.19
2022-08-11T21:15:15.697Z,17.15
2022-08-11T21:18:59.617Z,17.10
2022-08-11T21:22:31.013Z,17.06
2022-08-11T21:25:59.367Z,17.02
2022-08-11T21:29:26.104Z,16.98
2022-08-11T21:32:50.531Z,16.91
2022-08-11T21:36:12.974Z,16.87
2022-08-11T21:39:41.322Z,16.86
2022-08-11T21:43:05.873Z,16.83
2022-08-11T21:46:29.418Z,16.80
2022-08-11T21:49:58.504Z,16.75
2022-08-11T21:53:21.399Z,16.73
2022-08-11T21:56:47.296Z,16.74
2022-08-11T22:00:12.180Z,16.68
2022-08-11T22:03:41.129Z,16.67
2022-08-11T22:07:14.216Z,16.64
2022-08-11T22:10:42.125Z,16.53
2022-08-11T22:14:08.390Z,16.48
2022-08-11T22:17:29.916Z,16.41
2022-08-11T22:20:53.690Z,16.40
2022-08-11T22:24:18.393Z,16.38
2022-08-11T22:27:53.632Z,16.37
2022-08-11T22:31:21.953Z,16.33
2022-08-11T22:34:52.559Z,16.29
2022-08-11T22:38:17.692Z,16.24
2022-08-11T22:41:40.654Z,16.21
2022-08-11T22:45:03.333Z,16.16
2022-08-11T22:48:29.683Z,16.09
2022-08-11T22:51:53.649Z,16.05
2022-08-11T22:55:18.029Z,16.00
2022-08-11T22:58:41.149Z,15.97
2022-08-11T23:02:04.211Z,15.95
2022-08-11T23:05:29.569Z,15.92
2022-08-11T23:08:52.895Z,15.84
2022-08-11T23:12:14.463Z,15.79
2022-08-11T23:15:37.526Z,15.77
2022-08-11T23:19:03.062Z,15.74
2022-08-11T23:22:49.625Z,15.62
2022-08-11T23:26:13.364Z,15.48
2022-08-11T23:29:37.516Z,15.44
2022-08-11T23:33:03.598Z,15.46
2022-08-11T23:36:46.740Z,15.45
2022-08-11T23:40:10.843Z,15.44
2022-08-11T23:43:39.058Z,15.42
2022-08-11T23:47:03.094Z,15.36
2022-08-11T23:50:27.238Z,15.36
2022-08-11T23:53:49.234Z,15.38
2022-08-11T23:57:14.475Z,15.42
